Time;durP1;ratioP1;P1;durP2;ratioP2;P2;SDS_P1;SDS_P2;PMS_P1;PMS_P2;Temp;Humidity;BMP_temperature;BMP_pressure;BME280_temperature;BME280_humidity;BME280_pressure;Samples;Min_cycle;Max_cycle;Signal;HPM_P1;HPM_P2
2022/05/24 00:00:34;;;;;;;3.85;2.90;;;;;;;17.76;56.02;97999.06;5089156;28;20059;-76
2022/05/24 00:03:03;;;;;;;6.75;3.20;;;;;;;18.79;56.18;98153.38;5089268;28;20060;-75
2022/05/24 00:05:34;;;;;;;4.93;3.67;;;;;;;18.87;56.31;98156.09;5088924;28;20312;-76
2022/05/24 00:08:01;;;;;;;6.28;3.70;;;;;;;18.89;56.08;98162.13;5088628;28;20056;-75
2022/05/24 00:10:33;;;;;;;6.10;3.90;;;;;;;18.61;57.39;98115.13;5088888;28;20209;-75
2022/05/24 00:13:01;;;;;;;6.15;3.35;;;;;;;18.85;56.67;98160.78;5088855;28;20052;-76
2022/05/24 00:15:31;;;;;;;5.30;3.60;;;;;;;18.82;56.75;98150.38;5088130;28;20056;-76
2022/05/24 00:18:01;;;;;;;4.47;3.30;;;;;;;18.77;56.66;98147.34;5088521;28;20064;-76
2022/05/24 00:20:33;;;;;;;4.45;3.45;;;;;;;18.80;58.17;98144.34;5088462;28;20052;-76
2022/05/24 00:23:01;;;;;;;7.30;3.72;;;;;;;18.83;57.00;98140.47;5088801;28;20052;-76
2022/05/24 00:25:31;;;;;;;4.70;3.75;;;;;;;18.83;57.00;98135.09;5089034;28;20052;-76
2022/05/24 00:27:58;;;;;;;4.93;3.42;;;;;;;18.82;56.78;98128.06;5088581;28;20327;-76
2022/05/24 00:30:26;;;;;;;5.55;3.30;;;;;;;18.86;56.77;98132.09;5088224;28;20049;-77
2022/05/24 00:32:54;;;;;;;5.28;3.97;;;;;;;18.87;56.70;98131.09;5088552;28;20335;-76
2022/05/24 00:35:21;;;;;;;5.03;3.90;;;;;;;18.89;56.35;98124.53;5088508;28;20063;-76
2022/05/24 00:37:51;;;;;;;5.03;3.53;;;;;;;18.76;57.93;98107.25;5088375;28;20071;-76
2022/05/24 00:40:32;;;;;;;5.18;3.25;;;;;;;18.75;58.61;98117.16;5088336;28;20067;-76
2022/05/24 00:43:01;;;;;;;3.80;3.38;;;;;;;18.81;56.93;98110.28;5088253;28;20312;-77
2022/05/24 00:45:32;;;;;;;6.70;3.40;;;;;;;18.85;58.13;98106.25;5087848;28;20316;-76
2022/05/24 00:48:05;;;;;;;4.53;3.40;;;;;;;18.86;58.17;98102.56;5088154;28;20056;-76
2022/05/24 00:50:37;;;;;;;6.97;3.15;;;;;;;18.89;56.85;98107.59;5087860;28;20052;-77
2022/05/24 00:53:09;;;;;;;4.47;3.55;;;;;;;18.14;58.05;97994.97;5087831;28;20111;-76
2022/05/24 00:55:50;;;;;;;3.88;3.03;;;;;;;18.89;58.66;98095.03;5088047;28;20212;-76
2022/05/24 00:58:28;;;;;;;5.53;3.72;;;;;;;18.90;57.10;98093.16;5087760;28;20056;-76
2022/05/24 01:00:56;;;;;;;4.32;3.55;;;;;;;18.89;57.02;98094.19;5087123;28;20063;-76
2022/05/24 01:03:23;;;;;;;6.07;4.43;;;;;;;18.89;57.28;98099.53;5087981;28;20066;-76
2022/05/24 01:05:51;;;;;;;8.10;4.47;;;;;;;18.89;57.31;98092.34;5087968;28;20052;-76
2022/05/24 01:08:20;;;;;;;5.78;3.60;;;;;;;18.86;58.54;98094.50;5087961;28;20063;-76
2022/05/24 01:10:51;;;;;;;4.43;3.33;;;;;;;18.76;59.09;98086.63;5087595;28;20052;-76
2022/05/24 01:13:22;;;;;;;5.18;3.42;;;;;;;18.72;59.27;98090.66;5087515;28;20063;-76
2022/05/24 01:15:51;;;;;;;5.28;3.70;;;;;;;18.67;58.87;98087.63;5087411;28;20063;-76
2022/05/24 01:18:21;;;;;;;4.47;3.15;;;;;;;18.64;58.43;98087.97;5087596;28;20056;-76
2022/05/24 01:20:55;;;;;;;4.82;3.58;;;;;;;17.91;59.16;97967.13;5087261;28;20060;-76
2022/05/24 01:23:37;;;;;;;5.68;3.70;;;;;;;18.49;60.30;98093.09;5087365;28;20283;-76
2022/05/24 01:26:12;;;;;;;5.85;3.67;;;;;;;18.54;59.66;98093.47;5087534;28;20059;-77
2022/05/24 01:28:46;;;;;;;5.57;3.30;;;;;;;18.48;59.71;98093.25;5086403;28;20063;-75
2022/05/24 01:31:13;;;;;;;;;;;;;;;18.41;61.53;98084.19;5087529;28;20056;-76
2022/05/24 01:36:29;;;;;;;7.13;3.47;;;;;;;18.39;59.17;98089.72;5087271;28;20222;-76
2022/05/24 01:39:01;;;;;;;4.53;3.58;;;;;;;18.42;59.75;98085.88;5087363;28;20056;-76
2022/05/24 01:41:32;;;;;;;4.50;3.63;;;;;;;18.43;60.15;98090.25;5087322;28;20220;-76
2022/05/24 01:44:01;;;;;;;6.30;3.60;;;;;;;18.41;60.42;98086.88;5087157;28;20300;-76
2022/05/24 01:46:34;;;;;;;5.82;4.03;;;;;;;18.45;60.23;98093.59;5087206;28;20052;-76
2022/05/24 01:49:05;;;;;;;8.07;4.05;;;;;;;18.45;60.30;98091.75;5087154;28;20052;-75
2022/05/24 01:51:38;;;;;;;5.05;3.80;;;;;;;18.44;60.61;98091.91;5086698;28;20052;-75
2022/05/24 01:54:08;;;;;;;5.03;3.22;;;;;;;18.47;60.20;98097.78;5087001;28;20059;-75
2022/05/24 01:56:42;;;;;;;4.57;3.88;;;;;;;18.44;60.76;98092.75;5086932;28;20052;-75
2022/05/24 01:59:13;;;;;;;8.73;3.67;;;;;;;18.47;59.82;98099.63;5086875;28;20056;-75
2022/05/24 02:01:47;;;;;;;7.50;3.53;;;;;;;18.36;61.56;98106.16;5086514;28;20059;-76
2022/05/24 02:04:15;;;;;;;;;;;;;;;18.28;62.17;98093.56;5087388;28;20056;-77
2022/05/24 02:06:43;;;;;;;6.20;3.08;;;;;;;18.24;60.82;98102.09;5086804;28;19927;-76
2022/05/24 02:09:12;;;;;;;4.50;3.50;;;;;;;18.24;60.88;98108.28;5086375;28;20212;-76
2022/05/24 02:11:40;;;;;;;8.13;3.88;;;;;;;17.66;60.16;98003.72;5085430;28;20308;-77
2022/05/24 02:14:21;;;;;;;6.70;4.10;;;;;;;18.31;61.85;98095.06;5086560;28;20040;-76
2022/05/24 02:16:52;;;;;;;6.63;4.53;;;;;;;18.30;60.53;98092.56;5086641;28;20315;-76
2022/05/24 02:19:21;;;;;;;4.85;3.15;;;;;;;17.99;60.87;98046.72;5086294;28;20056;-76
2022/05/24 02:21:55;;;;;;;4.78;3.35;;;;;;;18.27;61.56;98093.72;5086352;28;20056;-75
2022/05/24 02:24:25;;;;;;;5.57;3.63;;;;;;;18.22;61.30;98096.91;5086505;28;20053;-76
2022/05/24 02:26:53;;;;;;;5.72;4.35;;;;;;;18.17;62.07;98109.09;5086372;28;20057;-76
2022/05/24 02:29:23;;;;;;;6.38;3.35;;;;;;;18.12;62.03;98116.81;5085453;28;20048;-76
2022/05/24 02:31:52;;;;;;;5.10;4.28;;;;;;;18.12;61.44;98123.00;5085899;28;20060;-76
2022/05/24 02:34:20;;;;;;;5.90;4.57;;;;;;;18.03;61.48;98123.97;5085818;28;20056;-76
2022/05/24 02:36:47;;;;;;;5.75;4.60;;;;;;;18.05;62.76;98127.34;5086108;28;20072;-76
2022/05/24 02:39:14;;;;;;;4.82;3.70;;;;;;;18.07;61.81;98125.31;5086167;28;20224;-77
2022/05/24 02:41:41;;;;;;;7.70;4.95;;;;;;;18.08;61.61;98126.16;5085730;28;20056;-77
2022/05/24 02:44:10;;;;;;;6.22;4.25;;;;;;;18.08;62.65;98118.13;5085971;28;20317;-77
2022/05/24 02:46:42;;;;;;;5.35;4.25;;;;;;;17.90;64.46;98126.25;5086029;28;20056;-77
2022/05/24 02:49:09;;;;;;;5.60;3.90;;;;;;;17.80;62.86;98130.91;5085720;28;20052;-77
2022/05/24 02:51:38;;;;;;;5.90;4.28;;;;;;;17.49;63.21;98077.78;5085632;28;20262;-77
2022/05/24 02:54:06;;;;;;;4.93;3.95;;;;;;;17.80;62.84;98129.06;5085898;28;20056;-76
2022/05/24 02:56:34;;;;;;;7.85;4.20;;;;;;;16.50;63.95;97937.25;5085590;28;20060;-77
2022/05/24 02:59:01;;;;;;;8.77;4.43;;;;;;;17.75;63.67;98135.91;5085864;28;20056;-77
2022/05/24 03:01:30;;;;;;;6.47;4.07;;;;;;;17.64;64.58;98139.69;5085468;28;20374;-76
2022/05/24 03:03:58;;;;;;;6.38;4.45;;;;;;;17.65;64.47;98138.69;5085582;28;20052;-76
2022/05/24 03:06:26;;;;;;;5.53;4.35;;;;;;;17.39;64.03;98084.25;5085837;28;20109;-77
2022/05/24 03:14:25;;;;;;;4.47;4.07;;;;;;;15.48;63.43;97761.41;5085040;28;20048;-76
2022/05/24 03:16:56;;;;;;;5.85;3.72;;;;;;;17.76;63.54;98134.91;5085603;28;20323;-77
2022/05/24 03:19:26;;;;;;;4.80;3.92;;;;;;;17.67;64.06;98142.06;5085663;28;20044;-76
2022/05/24 03:21:54;;;;;;;4.65;3.85;;;;;;;17.72;63.50;98145.09;5085703;28;20064;-77
2022/05/24 03:24:21;;;;;;;7.55;4.22;;;;;;;17.61;64.03;98148.88;5084989;28;20083;-77
2022/05/24 03:26:48;;;;;;;5.68;3.65;;;;;;;17.68;63.55;98151.78;5085622;28;20113;-76
2022/05/24 03:29:15;;;;;;;7.68;4.47;;;;;;;17.73;63.43;98149.47;5085495;28;20297;-77
2022/05/24 03:31:43;;;;;;;5.40;3.63;;;;;;;17.70;64.19;98155.13;5084937;28;20052;-76
2022/05/24 03:34:10;;;;;;;6.25;4.07;;;;;;;17.65;64.22;98154.78;5085413;28;20255;-77
2022/05/24 03:36:38;;;;;;;8.52;4.90;;;;;;;17.68;63.18;98150.94;5085088;28;20057;-76
2022/05/24 03:39:07;;;;;;;5.95;4.55;;;;;;;17.73;62.94;98164.69;5085061;28;20106;-76
2022/05/24 03:41:35;;;;;;;5.30;4.25;;;;;;;17.71;63.74;98159.50;5085209;28;20313;-77
2022/05/24 03:44:02;;;;;;;8.55;5.95;;;;;;;17.74;63.70;98169.06;5084995;28;20057;-76
2022/05/24 03:46:29;;;;;;;8.88;5.18;;;;;;;17.74;63.20;98161.00;5085241;28;20102;-76
2022/05/24 03:48:56;;;;;;;11.73;6.55;;;;;;;16.73;63.86;98010.69;5085317;28;20367;-76
2022/05/24 03:51:24;;;;;;;7.13;5.90;;;;;;;17.70;63.17;98149.78;5085257;28;20053;-76
2022/05/24 03:53:52;;;;;;;9.07;5.40;;;;;;;17.76;63.71;98157.19;5085104;28;20057;-77
2022/05/24 03:56:20;;;;;;;8.07;4.97;;;;;;;17.76;64.54;98157.19;5085249;28;20052;-77
2022/05/24 03:58:47;;;;;;;9.85;5.45;;;;;;;17.70;64.14;98159.66;5085245;28;20263;-76
2022/05/24 04:01:14;;;;;;;5.75;4.63;;;;;;;17.63;64.10;98168.31;5084730;28;20056;-77
2022/05/24 04:03:41;;;;;;;6.57;4.45;;;;;;;17.61;64.23;98166.78;5085045;28;20056;-77
2022/05/24 04:06:10;;;;;;;7.32;4.72;;;;;;;17.65;63.86;98180.72;5084815;28;20114;-76
2022/05/24 04:08:37;;;;;;;7.35;5.05;;;;;;;17.66;63.98;98179.72;5085136;28;20060;-76
2022/05/24 04:11:07;;;;;;;7.00;3.90;;;;;;;17.67;64.88;98178.72;5084970;28;20098;-77
2022/05/24 04:13:36;;;;;;;16.10;5.47;;;;;;;17.65;63.54;98202.16;5084708;28;20239;-77
2022/05/24 04:16:03;;;;;;;10.68;5.32;;;;;;;17.71;63.54;98194.31;5084803;28;20081;-77
2022/05/24 04:18:31;;;;;;;8.25;6.53;;;;;;;17.80;63.13;98187.19;5083589;28;20258;-77
2022/05/24 04:20:58;;;;;;;10.38;7.40;;;;;;;17.80;64.18;98190.69;5084531;28;20064;-76
2022/05/24 04:23:26;;;;;;;7.15;6.10;;;;;;;17.78;62.96;98186.50;5083588;28;20052;-76
2022/05/24 04:25:56;;;;;;;7.88;5.78;;;;;;;17.69;62.96;98190.97;5084912;28;20094;-77
2022/05/24 04:28:25;;;;;;;7.32;4.90;;;;;;;17.69;63.51;98214.25;5084688;28;20098;-77
2022/05/24 04:30:53;;;;;;;6.43;4.28;;;;;;;17.74;63.49;98207.41;5084600;28;20056;-77
2022/05/24 04:33:21;;;;;;;7.25;4.78;;;;;;;17.52;63.42;98165.88;5084943;28;20052;-76
2022/05/24 04:35:48;;;;;;;6.65;5.13;;;;;;;17.17;63.65;98115.88;5086927;28;20090;-76
2022/05/24 04:38:15;;;;;;;5.95;4.28;;;;;;;17.76;63.12;98212.59;5088587;28;20060;-76
2022/05/24 04:43:30;;;;;;;5.38;3.95;;;;;;;17.70;63.88;98200.69;5088564;28;20040;-77
2022/05/24 04:45:58;;;;;;;7.45;4.13;;;;;;;17.10;63.32;98119.34;5088400;28;20098;-76
2022/05/24 04:48:26;;;;;;;6.20;3.97;;;;;;;17.63;63.59;98205.81;5087936;28;20052;-77
2022/05/24 04:50:54;;;;;;;5.88;4.03;;;;;;;17.68;62.87;98212.56;5087928;28;20052;-76
2022/05/24 04:53:22;;;;;;;5.45;3.80;;;;;;;17.74;63.07;98206.56;5088143;28;20261;-76
2022/05/24 04:55:50;;;;;;;6.50;4.22;;;;;;;17.84;62.74;98218.03;5088104;28;20058;-76
2022/05/24 04:58:17;;;;;;;6.00;5.15;;;;;;;17.88;62.21;98214.03;5087035;28;20106;-77
2022/05/24 05:00:48;;;;;;;5.88;4.18;;;;;;;17.80;62.41;98211.28;5088026;28;20106;-77
2022/05/24 05:03:18;;;;;;;4.57;3.47;;;;;;;17.45;62.35;98188.94;5088014;28;20109;-77
2022/05/24 05:05:46;;;;;;;5.35;3.60;;;;;;;17.76;62.10;98217.97;5087709;28;20057;-76
2022/05/24 05:08:13;;;;;;;4.55;3.90;;;;;;;17.80;61.77;98222.00;5087626;28;20056;-77
2022/05/24 05:10:41;;;;;;;8.93;4.72;;;;;;;17.57;62.04;98181.47;5087796;28;20060;-77
2022/05/24 05:13:08;;;;;;;4.07;3.20;;;;;;;17.83;61.66;98219.88;5087557;28;20048;-76
2022/05/24 05:15:37;;;;;;;6.50;3.47;;;;;;;17.87;61.63;98223.06;5087747;28;20101;-77
2022/05/24 05:18:07;;;;;;;6.28;4.45;;;;;;;17.54;61.23;98168.38;5069906;28;20068;-76
2022/05/24 05:20:38;;;;;;;5.95;4.07;;;;;;;17.74;60.66;98234.22;5087233;28;20102;-76
2022/05/24 05:23:07;;;;;;;4.28;3.55;;;;;;;17.46;60.67;98214.72;5087294;28;20056;-76
2022/05/24 05:25:34;;;;;;;5.82;3.65;;;;;;;17.56;60.50;98244.94;5087362;28;20052;-76
2022/05/24 05:28:02;;;;;;;6.25;3.97;;;;;;;17.51;60.95;98249.06;5087518;28;20115;-76
2022/05/24 05:33:17;;;;;;;6.00;4.18;;;;;;;17.46;60.29;98262.94;5087639;28;20101;-77
2022/05/24 05:35:45;;;;;;;5.60;3.92;;;;;;;17.48;60.50;98262.75;5086864;28;20053;-76
2022/05/24 05:38:13;;;;;;;4.95;3.28;;;;;;;17.48;60.32;98255.56;5087294;28;20064;-76
2022/05/24 05:40:41;;;;;;;6.28;4.47;;;;;;;17.42;60.15;98263.38;5086086;28;20362;-76
2022/05/24 05:43:08;;;;;;;5.32;3.40;;;;;;;17.43;60.32;98275.78;5087450;28;20102;-76
2022/05/24 05:45:35;;;;;;;7.78;4.45;;;;;;;17.42;59.94;98272.25;5086897;28;20078;-77
2022/05/24 05:48:03;;;;;;;5.07;4.57;;;;;;;17.53;59.98;98284.56;5087284;28;20056;-76
2022/05/24 05:50:32;;;;;;;8.63;4.40;;;;;;;17.52;59.50;98282.91;5086967;28;20103;-77
2022/05/24 05:53:03;;;;;;;5.75;3.67;;;;;;;17.49;59.57;98288.56;5086849;28;20052;-76
2022/05/24 05:55:31;;;;;;;7.57;3.95;;;;;;;17.45;59.42;98293.38;5087095;28;20052;-76
2022/05/24 05:57:58;;;;;;;6.05;3.92;;;;;;;17.39;59.71;98293.16;5086769;28;20239;-76
2022/05/24 06:00:26;;;;;;;6.72;4.28;;;;;;;17.34;59.61;98300.81;5085754;28;20330;-76
2022/05/24 06:02:53;;;;;;;6.75;4.68;;;;;;;17.33;59.61;98305.31;5086453;28;20049;-76
2022/05/24 06:05:21;;;;;;;6.13;3.83;;;;;;;17.34;59.87;98315.03;5086414;28;20064;-76
2022/05/24 06:07:50;;;;;;;8.68;4.05;;;;;;;17.42;59.83;98307.06;5086571;28;20197;-76
2022/05/24 06:10:17;;;;;;;5.50;4.10;;;;;;;17.46;59.70;98311.13;5086463;28;20052;-76
2022/05/24 06:12:45;;;;;;;6.35;4.25;;;;;;;17.49;59.80;98310.00;5086014;28;20056;-76
2022/05/24 06:15:12;;;;;;;4.78;3.45;;;;;;;17.53;59.60;98306.84;5086306;28;20129;-76
2022/05/24 06:17:44;;;;;;;6.30;4.78;;;;;;;17.47;60.36;98315.50;5086051;28;20060;-76
2022/05/24 06:20:12;;;;;;;3.75;3.20;;;;;;;16.78;60.00;98225.09;5086369;28;20274;-76
2022/05/24 06:22:40;;;;;;;5.28;3.63;;;;;;;17.54;59.87;98329.13;5086140;28;20048;-77
2022/05/24 06:25:09;;;;;;;7.97;4.10;;;;;;;17.48;59.81;98322.53;5085942;28;20231;-76
2022/05/24 06:27:37;;;;;;;5.35;3.42;;;;;;;17.50;60.52;98311.66;5086194;28;20370;-76
2022/05/24 06:30:05;;;;;;;7.10;4.38;;;;;;;17.50;60.28;98328.59;5085912;28;20335;-77
2022/05/24 06:32:33;;;;;;;5.40;3.28;;;;;;;17.55;60.06;98306.69;5086207;28;20057;-76
2022/05/24 06:35:00;;;;;;;11.38;4.13;;;;;;;17.57;60.04;98305.53;5085605;28;20049;-76
2022/05/24 06:37:27;;;;;;;5.20;3.95;;;;;;;17.58;60.40;98314.44;5086121;28;20105;-76
2022/05/24 06:39:54;;;;;;;6.93;4.20;;;;;;;17.54;61.06;98313.03;5085804;28;20057;-76
2022/05/24 06:42:23;;;;;;;4.97;3.90;;;;;;;17.61;60.05;98314.16;5086235;28;20309;-76
2022/05/24 06:44:50;;;;;;;4.18;3.45;;;;;;;17.68;60.34;98315.22;5085815;28;20102;-77
2022/05/24 06:47:18;;;;;;;4.47;3.38;;;;;;;16.80;60.23;98180.28;5085991;28;20102;-76
2022/05/24 06:49:45;;;;;;;6.55;4.25;;;;;;;17.86;59.79;98301.78;5085769;28;20111;-76
2022/05/24 06:52:15;;;;;;;8.45;4.90;;;;;;;17.89;60.14;98298.78;5085563;28;20060;-76
2022/05/24 06:54:42;;;;;;;5.38;3.95;;;;;;;17.99;59.48;98291.50;5085748;28;20052;-76
2022/05/24 06:57:09;;;;;;;5.15;4.13;;;;;;;18.04;60.13;98293.72;5085399;28;20113;-76
2022/05/24 07:02:26;;;;;;;5.97;4.10;;;;;;;17.85;60.58;98273.31;5085671;28;20334;-76
2022/05/24 07:04:57;;;;;;;6.35;4.47;;;;;;;18.07;60.18;98306.81;5085617;28;20079;-76
2022/05/24 07:07:25;;;;;;;5.63;4.32;;;;;;;18.07;60.31;98306.81;5085785;28;20266;-76
2022/05/24 07:09:53;;;;;;;4.22;3.47;;;;;;;18.08;60.62;98300.44;5085359;28;20367;-76
2022/05/24 07:12:20;;;;;;;3.70;3.08;;;;;;;18.11;60.74;98302.81;5085303;28;20057;-76
2022/05/24 07:14:49;;;;;;;7.85;7.05;;;;;;;17.88;60.61;98276.50;5085540;28;20110;-76
2022/05/24 07:17:18;;;;;;;8.07;4.97;;;;;;;18.23;60.35;98298.88;5085095;28;20309;-76
2022/05/24 07:19:46;;;;;;;6.40;4.45;;;;;;;17.44;59.62;98135.50;5085423;28;20106;-76
2022/05/24 07:22:15;;;;;;;6.43;4.97;;;;;;;18.57;59.57;98297.06;5085105;28;20316;-76
2022/05/24 07:24:43;;;;;;;6.25;3.95;;;;;;;17.75;58.62;98109.09;5085304;28;20317;-76
2022/05/24 07:27:11;;;;;;;5.32;4.25;;;;;;;18.75;58.16;98237.94;5085024;28;20309;-76
2022/05/24 07:29:39;;;;;;;7.85;4.60;;;;;;;19.16;57.83;98281.81;5084217;28;20078;-76
2022/05/24 07:32:10;;;;;;;5.93;3.88;;;;;;;19.22;58.13;98291.06;5084810;28;20060;-76
2022/05/24 07:34:38;;;;;;;6.00;3.83;;;;;;;19.39;57.84;98281.22;5084980;28;20159;-76
2022/05/24 07:37:08;;;;;;;4.82;3.60;;;;;;;19.27;57.53;98223.41;5084046;28;20099;-76
2022/05/24 07:39:39;;;;;;;6.05;4.70;;;;;;;19.65;56.65;98284.59;5085288;28;20057;-76
2022/05/24 07:47:34;;;;;;;5.88;4.22;;;;;;;20.00;55.80;98291.50;5084500;28;20197;-76
2022/05/24 07:50:02;;;;;;;7.07;4.07;;;;;;;20.11;55.63;98282.25;5085493;28;20056;-76
2022/05/24 07:52:29;;;;;;;5.45;3.83;;;;;;;20.24;55.44;98277.19;5085048;28;20060;-76
2022/05/24 07:54:56;;;;;;;7.72;4.20;;;;;;;20.39;55.21;98277.31;5084769;28;20056;-76
2022/05/24 07:57:24;;;;;;;5.97;3.55;;;;;;;20.23;55.26;98232.47;5085030;28;20060;-76
2022/05/24 07:59:51;;;;;;;6.50;3.97;;;;;;;20.67;54.65;98281.28;5084966;28;20044;-76
2022/05/24 08:02:22;;;;;;;5.07;4.20;;;;;;;20.76;54.36;98277.53;5085178;28;20056;-76
2022/05/24 08:04:55;;;;;;;7.80;4.90;;;;;;;20.83;53.78;98277.66;5084431;28;20052;-76
2022/05/24 08:07:22;;;;;;;6.72;3.47;;;;;;;20.91;54.13;98284.88;5084060;28;20048;-76
2022/05/24 08:09:49;;;;;;;4.82;4.28;;;;;;;21.07;53.90;98290.19;5087206;28;20103;-75
2022/05/24 08:12:17;;;;;;;5.97;4.43;;;;;;;21.19;53.69;98283.41;5087832;28;20061;-75
2022/05/24 08:14:46;;;;;;;4.93;3.30;;;;;;;21.32;53.61;98280.94;5088739;28;20060;-75
2022/05/24 08:17:13;;;;;;;7.05;4.97;;;;;;;21.18;53.14;98230.53;5088959;28;20056;-75
2022/05/24 08:19:41;;;;;;;7.63;5.03;;;;;;;20.43;52.79;98096.50;5089137;28;20056;-76
2022/05/24 08:22:09;;;;;;;5.32;4.10;;;;;;;21.30;53.02;98228.25;5088325;28;20052;-76
2022/05/24 08:24:37;;;;;;;4.28;3.47;;;;;;;21.74;52.80;98272.38;5088145;28;20052;-76
2022/05/24 08:27:06;;;;;;;9.90;3.58;;;;;;;21.83;52.98;98283.13;5088085;28;20067;-75
2022/05/24 08:29:35;;;;;;;4.40;3.78;;;;;;;21.85;52.63;98286.47;5088703;28;20098;-76
2022/05/24 08:32:02;;;;;;;6.78;4.35;;;;;;;21.87;52.80;98284.44;5087723;28;20101;-76
2022/05/24 08:34:31;;;;;;;4.57;4.03;;;;;;;21.93;52.71;98271.06;5088398;28;20056;-76
2022/05/24 08:36:58;;;;;;;8.70;4.57;;;;;;;20.47;51.69;97997.44;5088118;28;20057;-76
2022/05/24 08:39:27;;;;;;;5.85;4.35;;;;;;;22.24;51.43;98278.19;5088229;28;20053;-76
2022/05/24 08:42:09;;;;;;;9.60;4.70;;;;;;;21.97;51.01;98212.19;5088551;28;20057;-76
2022/05/24 08:50:15;;;;;;;7.63;3.92;;;;;;;22.41;51.12;98274.31;5088213;28;20085;-77
2022/05/24 08:52:47;;;;;;;8.65;4.03;;;;;;;22.37;51.13;98281.06;5087710;28;20137;-77
2022/05/24 08:55:19;;;;;;;5.15;3.97;;;;;;;21.52;51.04;98145.69;5088171;28;20305;-77
2022/05/24 08:57:49;;;;;;;6.18;3.50;;;;;;;22.27;51.16;98296.69;5087903;28;20110;-77
2022/05/24 09:00:20;;;;;;;6.20;3.78;;;;;;;21.54;51.67;98133.72;5087816;28;20057;-77
2022/05/24 09:02:49;;;;;;;5.40;3.45;;;;;;;22.54;51.01;98271.81;5087880;28;20114;-77
2022/05/24 09:05:20;;;;;;;6.53;4.53;;;;;;;22.58;50.60;98272.28;5087627;28;20056;-77
2022/05/24 09:08:04;;;;;;;5.78;3.75;;;;;;;22.65;49.77;98270.53;5087922;28;20204;-77
2022/05/24 09:10:39;;;;;;;6.47;4.13;;;;;;;22.62;49.90;98260.09;5087849;28;20056;-77
2022/05/24 09:13:19;;;;;;;6.53;4.55;;;;;;;22.86;49.33;98248.13;5087796;28;20056;-77
2022/05/24 09:15:50;;;;;;;6.22;4.57;;;;;;;22.97;49.24;98253.06;5087786;28;20110;-77
2022/05/24 09:18:31;;;;;;;6.43;4.88;;;;;;;23.04;48.73;98253.97;5087393;28;20098;-77
2022/05/24 09:20:59;;;;;;;7.05;4.60;;;;;;;22.52;49.66;98184.75;5086633;28;20098;-77
2022/05/24 09:23:42;;;;;;;7.45;4.85;;;;;;;23.02;48.79;98254.16;5086225;28;20375;-77
2022/05/24 09:26:12;;;;;;;6.20;4.03;;;;;;;23.17;49.28;98248.72;5087315;28;20094;-77
2022/05/24 09:28:46;;;;;;;6.85;4.55;;;;;;;23.08;48.89;98259.81;5087366;28;20056;-77
2022/05/24 09:31:20;;;;;;;7.13;4.90;;;;;;;23.08;49.10;98259.81;5086983;28;20060;-76
2022/05/24 09:33:54;;;;;;;12.88;5.13;;;;;;;22.43;48.60;98164.28;5087240;28;20056;-76
2022/05/24 09:36:41;;;;;;;9.60;5.15;;;;;;;23.11;48.59;98257.56;5087405;28;20045;-76
2022/05/24 09:39:23;;;;;;;9.93;4.80;;;;;;;22.96;48.75;98267.59;5086964;28;20172;-76
2022/05/24 09:41:58;;;;;;;6.32;5.20;;;;;;;21.39;48.94;98009.72;5086251;28;20048;-76
2022/05/24 09:44:27;;;;;;;9.25;5.10;;;;;;;21.42;50.30;98070.50;5086755;28;20056;-76
2022/05/24 09:46:55;;;;;;;8.77;4.20;;;;;;;21.57;50.24;98067.81;5086967;28;20163;-76
2022/05/24 09:49:26;;;;;;;5.80;4.25;;;;;;;20.92;50.09;97941.84;5086420;28;20056;-77
2022/05/24 09:51:56;;;;;;;6.00;4.30;;;;;;;22.83;50.36;98273.66;5086772;28;20040;-77
2022/05/24 09:54:25;;;;;;;8.00;4.32;;;;;;;22.87;49.95;98282.22;5086288;28;20052;-76
2022/05/24 09:57:04;;;;;;;10.50;5.22;;;;;;;22.73;49.64;98287.47;5086661;28;20052;-76
2022/05/24 09:59:33;;;;;;;7.45;4.22;;;;;;;22.65;50.34;98284.84;5086578;28;20098;-76
2022/05/24 10:02:02;;;;;;;6.28;4.97;;;;;;;22.70;50.33;98284.28;5086758;28;20056;-77
2022/05/24 10:04:34;;;;;;;6.60;4.57;;;;;;;22.79;50.28;98279.63;5086568;28;20113;-78
2022/05/24 10:07:08;;;;;;;4.70;3.80;;;;;;;22.82;50.07;98273.84;5086568;28;20056;-76
2022/05/24 10:09:48;;;;;;;7.20;4.75;;;;;;;22.82;49.51;98279.25;5086501;28;20239;-77
2022/05/24 10:12:29;;;;;;;7.57;4.43;;;;;;;22.78;49.53;98286.06;5085922;28;20193;-77
2022/05/24 10:15:07;;;;;;;6.20;4.30;;;;;;;22.68;49.81;98280.94;5086271;28;20040;-77
2022/05/24 10:17:45;;;;;;;14.80;6.30;;;;;;;21.84;49.84;98183.16;5085306;28;20109;-77
2022/05/24 10:20:20;;;;;;;7.32;4.00;;;;;;;22.72;49.91;98257.94;5086722;28;20049;-76
2022/05/24 10:22:53;;;;;;;10.45;4.72;;;;;;;22.91;49.54;98270.03;5086259;28;20190;-77
2022/05/24 10:25:24;;;;;;;;;;;;;;;22.87;49.34;98279.53;5086448;28;20127;-78
2022/05/24 10:28:04;;;;;;;6.72;5.00;;;;;;;22.63;49.41;98246.41;5086089;28;19928;-77
2022/05/24 10:30:45;;;;;;;8.00;4.45;;;;;;;22.88;49.81;98273.09;5085756;28;20052;-78
2022/05/24 10:39:23;;;;;;;5.63;4.43;;;;;;;22.72;49.96;98271.44;5085005;28;20040;-77
2022/05/24 10:41:59;;;;;;;7.38;4.05;;;;;;;22.81;50.23;98277.56;5085520;28;20358;-77
2022/05/24 10:44:35;;;;;;;6.45;4.40;;;;;;;22.72;49.82;98268.75;5085808;28;20271;-77
2022/05/24 10:47:07;;;;;;;7.88;4.43;;;;;;;22.68;50.17;98270.97;5085999;28;20059;-77
2022/05/24 10:49:44;;;;;;;6.05;4.65;;;;;;;22.60;50.05;98262.13;5084832;28;20052;-77
2022/05/24 10:52:23;;;;;;;5.07;3.45;;;;;;;22.61;50.50;98272.75;5085864;28;20122;-77
2022/05/24 10:54:55;;;;;;;4.78;3.67;;;;;;;22.78;50.38;98276.09;5085298;28;20063;-77
2022/05/24 10:57:26;;;;;;;4.97;4.03;;;;;;;22.81;49.40;98234.34;5085333;28;20110;-77
2022/05/24 11:00:12;;;;;;;5.45;3.90;;;;;;;23.10;48.78;98271.28;5085627;28;20342;-73
2022/05/24 11:02:45;;;;;;;7.85;4.78;;;;;;;23.24;48.68;98271.25;5085407;28;20245;-73
2022/05/24 11:05:20;;;;;;;6.18;3.75;;;;;;;23.27;48.82;98270.06;5085429;28;20182;-73
2022/05/24 11:07:50;;;;;;;4.90;3.35;;;;;;;22.90;49.38;98227.81;5085498;28;20255;-74
2022/05/24 11:10:25;;;;;;;5.43;3.25;;;;;;;23.19;49.00;98262.03;5085002;28;20064;-74
2022/05/24 11:12:58;;;;;;;6.30;3.90;;;;;;;23.30;48.81;98256.16;5084833;28;20102;-74
2022/05/24 11:15:34;;;;;;;7.60;3.92;;;;;;;23.33;48.49;98253.06;5085171;28;20045;-74
2022/05/24 11:18:03;;;;;;;4.75;3.92;;;;;;;23.48;48.21;98243.03;5084898;28;20063;-74
2022/05/24 11:20:37;;;;;;;7.47;3.65;;;;;;;23.39;47.63;98217.16;5085192;28;20060;-74
2022/05/24 11:23:11;;;;;;;4.65;3.42;;;;;;;23.39;47.89;98246.88;5085480;28;20052;-74
2022/05/24 11:25:44;;;;;;;5.55;3.45;;;;;;;23.52;48.16;98251.59;5085496;28;20048;-74
2022/05/24 11:28:21;;;;;;;4.63;3.50;;;;;;;23.65;47.51;98252.53;5084867;28;20362;-74
2022/05/24 11:30:51;;;;;;;9.77;4.75;;;;;;;23.61;47.45;98255.84;5084886;28;20048;-74
2022/05/24 11:33:33;;;;;;;6.25;4.70;;;;;;;23.55;47.36;98260.16;5084841;28;20258;-74
2022/05/24 11:36:22;;;;;;;6.55;3.55;;;;;;;23.53;47.27;98258.66;5084055;28;20122;-74
2022/05/24 11:38:51;;;;;;;6.80;3.40;;;;;;;23.50;48.25;98261.75;5085077;28;20094;-73
2022/05/24 11:41:26;;;;;;;5.97;3.63;;;;;;;23.51;47.90;98252.63;5085117;28;20059;-73
2022/05/24 11:44:02;;;;;;;17.00;4.32;;;;;;;23.46;47.46;98268.59;5086799;28;20121;-73
2022/05/24 11:46:56;;;;;;;4.72;3.58;;;;;;;23.25;47.99;98218.00;5091753;28;20098;-74
2022/05/24 11:49:59;;;;;;;7.32;3.70;;;;;;;23.18;47.43;98241.44;5077545;28;20063;-73
2022/05/24 11:53:01;;;;;;;6.68;4.43;;;;;;;23.46;47.27;98253.19;5060463;28;20266;-74
2022/05/24 11:55:50;;;;;;;11.68;4.82;;;;;;;23.44;47.59;98255.25;5091394;28;20060;-73
2022/05/24 11:58:43;;;;;;;7.55;4.45;;;;;;;23.42;47.25;98261.88;5091495;28;20087;-73
2022/05/24 12:01:31;;;;;;;5.95;3.42;;;;;;;23.36;48.20;98268.91;5077369;28;20109;-74
2022/05/24 12:10:11;;;;;;;5.88;3.40;;;;;;;23.07;48.60;98242.78;5091823;28;20040;-74
2022/05/24 12:12:47;;;;;;;4.03;3.20;;;;;;;23.27;47.95;98273.59;5091428;28;20064;-74
2022/05/24 12:15:18;;;;;;;5.57;3.53;;;;;;;22.46;48.01;98168.47;5091609;28;20064;-75
2022/05/24 12:17:51;;;;;;;5.43;3.60;;;;;;;23.30;48.09;98286.72;5091563;28;20056;-74
2022/05/24 12:20:56;;;;;;;7.75;3.60;;;;;;;22.94;48.13;98261.53;5091897;28;20057;-74
2022/05/24 12:23:36;;;;;;;5.07;3.70;;;;;;;23.00;48.34;98287.78;5091399;28;20102;-75
2022/05/24 12:26:07;;;;;;;4.93;3.30;;;;;;;22.51;48.88;98228.97;5091611;28;20060;-74
2022/05/24 12:28:53;;;;;;;4.65;3.20;;;;;;;22.97;48.07;98298.97;5091563;28;20106;-72
2022/05/24 12:31:32;;;;;;;6.63;3.58;;;;;;;22.77;48.70;98293.31;5091112;28;20060;-72